createdAt,value
2015-09-02T09:13:16.078Z,34080
2015-09-02T09:13:28.390Z,35040
2015-09-02T09:13:40.859Z,35680
2015-09-02T09:13:53.296Z,36256
2015-09-02T09:14:05.593Z,36928
2015-09-02T09:14:18.065Z,37664
2015-09-02T09:14:30.518Z,38336
2015-09-02T09:14:42.924Z,38848
2015-09-02T09:14:55.331Z,38688
2015-09-02T09:15:07.737Z,38720
2015-09-02T09:15:20.160Z,38656
2015-09-02T09:15:32.582Z,38560
2015-09-02T09:15:45.019Z,38048
2015-09-02T09:15:57.425Z,37120
2015-09-02T09:16:09.832Z,36192
2015-09-02T09:16:22.241Z,35296
2015-09-02T09:16:34.647Z,34560
2015-09-02T09:16:47.069Z,33856
2015-09-02T09:16:59.491Z,33408
2015-09-02T09:17:11.897Z,33024
2015-09-02T09:17:24.289Z,32864
2015-09-02T09:17:36.695Z,32512
2015-09-02T09:17:49.117Z,31936
2015-09-02T09:18:01.523Z,31744
2015-09-02T09:18:13.961Z,31392
2015-09-02T09:18:26.400Z,30912
2015-09-02T09:18:38.838Z,30240
2015-09-02T09:18:51.244Z,29632
2015-09-02T09:19:03.650Z,29280
2015-09-02T09:19:16.056Z,28992
2015-09-02T09:19:28.465Z,28960
2015-09-02T09:19:40.871Z,29248
2015-09-02T09:19:53.277Z,29696
2015-09-02T09:20:05.683Z,29792
2015-09-02T09:20:18.090Z,29984
2015-09-02T09:20:30.498Z,30336
2015-09-02T09:20:42.889Z,30336
2015-09-02T09:20:55.310Z,30752
2015-09-02T09:21:07.717Z,31616
2015-09-02T09:21:20.139Z,32512
2015-09-02T09:21:32.562Z,33216
2015-09-02T09:21:44.984Z,33760
2015-09-02T09:21:57.437Z,33856
2015-09-02T09:22:09.844Z,33856
2015-09-02T09:22:22.281Z,33824
2015-09-02T09:22:34.722Z,33760
2015-09-02T09:22:47.175Z,33952
2015-09-02T09:22:59.612Z,34208
2015-09-02T09:23:12.065Z,34368
2015-09-02T09:23:24.456Z,34624
2015-09-02T09:23:36.863Z,34944
2015-09-02T09:23:49.270Z,34816
2015-09-02T09:24:01.676Z,34848
2015-09-02T09:24:14.113Z,34624
2015-09-02T09:24:25.848Z,34496
2015-09-02T09:24:38.256Z,34208
2015-09-02T09:24:50.678Z,34080
2015-09-02T09:25:03.100Z,33888
2015-09-02T09:25:15.537Z,33856
2015-09-02T09:25:27.975Z,33600
2015-09-02T09:25:40.399Z,33440
2015-09-02T09:25:52.789Z,32864
2015-09-02T09:26:05.195Z,32288
2015-09-02T09:26:17.602Z,32256
2015-09-02T09:26:30.024Z,32640
2015-09-02T09:26:42.432Z,33184
2015-09-02T09:26:54.838Z,33824
2015-09-02T09:27:07.213Z,34528
2015-09-02T09:27:19.604Z,35072
2015-09-02T09:27:31.994Z,35584
2015-09-02T09:27:44.418Z,36032
2015-09-02T09:27:56.840Z,36320
2015-09-02T09:28:09.262Z,36256
2015-09-02T09:28:21.668Z,36384
2015-09-02T09:28:33.387Z,36576
2015-09-02T09:28:45.811Z,36384
2015-09-02T09:28:58.248Z,36256
2015-09-02T09:29:10.686Z,36320
2015-09-02T09:29:23.108Z,36576
2015-09-02T09:29:35.545Z,36736
2015-09-02T09:29:48.001Z,36800
2015-09-02T09:30:00.423Z,36736
2015-09-02T09:30:12.829Z,36448
2015-09-02T09:30:25.236Z,36288
2015-09-02T09:30:37.626Z,36288
2015-09-02T09:30:50.049Z,36192
2015-09-02T09:31:02.455Z,36160
2015-09-02T09:31:14.893Z,35904
2015-09-02T09:31:27.299Z,35648
2015-09-02T09:31:39.721Z,35040
2015-09-02T09:31:52.129Z,34528
2015-09-02T09:32:04.536Z,33984
2015-09-02T09:32:16.942Z,33248
2015-09-02T09:32:29.348Z,32544
2015-09-02T09:32:41.754Z,31936
2015-09-02T09:32:54.163Z,31392
2015-09-02T09:33:06.569Z,31072
2015-09-02T09:33:18.975Z,30720
2015-09-02T09:33:31.459Z,30336
2015-09-02T09:33:44.006Z,30016
2015-09-02T09:33:56.555Z,29632
2015-09-02T09:34:08.399Z,29280
2015-09-02T09:34:21.040Z,28928
2015-09-02T09:34:33.743Z,28416
2015-09-02T09:34:46.805Z,28064
2015-09-02T09:34:59.120Z,27712
2015-09-02T09:35:11.526Z,27296
2015-09-02T09:35:23.932Z,26944
2015-09-02T09:35:36.323Z,26944
2015-09-02T09:35:48.729Z,26976
2015-09-02T09:36:01.137Z,26624
2015-09-02T09:36:12.825Z,26304
2015-09-02T09:36:25.215Z,26080
2015-09-02T09:36:37.637Z,25856
2015-09-02T09:36:50.059Z,25632
2015-09-02T09:37:02.483Z,25504
2015-09-02T09:37:14.889Z,25312
2015-09-02T09:37:27.296Z,25248
2015-09-02T09:37:39.702Z,25088
2015-09-02T09:37:52.108Z,25088
2015-09-02T09:38:04.501Z,25120
2015-09-02T09:38:16.907Z,25152
2015-09-02T09:38:29.329Z,25184
2015-09-02T09:38:41.751Z,25376
2015-09-02T09:38:54.188Z,25536
2015-09-02T09:39:06.611Z,25664
2015-09-02T09:39:19.017Z,25824
2015-09-02T09:39:31.392Z,25984
2015-09-02T09:39:43.799Z,26176
2015-09-02T09:39:56.189Z,26496
2015-09-02T09:40:08.613Z,26752
2015-09-02T09:40:21.035Z,27008
2015-09-02T09:40:33.457Z,27232
2015-09-02T09:40:45.847Z,27360
2015-09-02T09:40:58.254Z,27488
2015-09-02T09:41:10.647Z,27616
2015-09-02T09:41:23.069Z,27648
2015-09-02T09:41:35.475Z,27584
2015-09-02T09:41:47.882Z,27488
2015-09-02T09:42:00.304Z,27392
2015-09-02T09:42:12.743Z,27328
2015-09-02T09:42:25.149Z,27264
2015-09-02T09:42:37.540Z,27232
2015-09-02T09:42:49.946Z,27072
2015-09-02T09:43:02.352Z,26816
2015-09-02T09:43:14.761Z,26560
2015-09-02T09:43:27.167Z,26464
2015-09-02T09:43:39.589Z,26272
2015-09-02T09:43:51.979Z,25952
2015-09-02T09:44:04.464Z,25760
2015-09-02T09:44:16.716Z,25536
2015-09-02T09:44:29.231Z,25376
2015-09-02T09:44:41.825Z,25184
2015-09-02T09:44:54.247Z,24992
2015-09-02T09:45:06.575Z,24768
2015-09-02T09:45:19.014Z,24544
2015-09-02T09:45:31.436Z,24320
2015-09-02T09:45:43.670Z,24096
2015-09-02T09:45:55.826Z,23744
2015-09-02T09:46:08.092Z,23392
2015-09-02T09:46:20.345Z,22912
2015-09-02T09:46:32.454Z,22496
2015-09-02T09:46:44.876Z,22048
2015-09-02T09:46:57.173Z,21472
2015-09-02T09:47:09.876Z,20992
2015-09-02T09:47:22.347Z,20448
2015-09-02T09:47:34.425Z,19904
2015-09-02T09:47:46.534Z,19424
2015-09-02T09:47:58.987Z,18944
2015-09-02T09:48:11.253Z,18368
2015-09-02T09:48:23.568Z,17856
2015-09-02T09:48:35.646Z,17272
2015-09-02T09:48:47.943Z,17044
2015-09-02T09:49:00.224Z,16888
2015-09-02T09:49:12.333Z,16776
2015-09-02T09:49:24.740Z,16704
2015-09-02T09:49:36.990Z,16664
2015-09-02T09:49:49.240Z,16632
2015-09-02T09:50:01.475Z,16524
2015-09-02T09:50:14.022Z,16460
2015-09-02T09:50:26.681Z,16564
2015-09-02T09:50:38.775Z,16596
2015-09-02T09:50:50.900Z,16440
2015-09-02T09:51:02.915Z,16148
2015-09-02T09:51:15.040Z,15776
2015-09-02T09:51:27.183Z,15512
2015-09-02T09:51:39.464Z,15376
2015-09-02T09:51:51.777Z,15264
2015-09-02T09:52:04.183Z,15224
2015-09-02T09:52:16.589Z,15256
2015-09-02T09:52:28.825Z,15384
2015-09-02T09:52:41.075Z,15524
2015-09-02T09:52:53.168Z,15604
2015-09-02T09:53:05.262Z,15484
2015-09-02T09:53:17.387Z,15284
2015-09-02T09:53:29.828Z,15020
2015-09-02T09:53:42.234Z,14836
2015-09-02T09:53:58.749Z,14724
2015-09-02T09:54:11.390Z,14704
2015-09-02T09:54:24.282Z,14584
2015-09-02T09:54:37.407Z,14388
2015-09-02T09:54:49.719Z,14356
2015-09-02T09:55:02.204Z,14280
2015-09-02T09:55:14.594Z,14136
2015-09-02T09:55:26.847Z,14092
2015-09-02T09:55:39.238Z,13996
2015-09-02T09:55:51.644Z,13972
2015-09-02T09:56:04.050Z,13772
2015-09-02T09:56:16.457Z,13528
2015-09-02T09:56:28.879Z,13284
2015-09-02T09:56:41.301Z,12988
2015-09-02T09:56:53.708Z,12604
2015-09-02T09:57:06.114Z,12280
2015-09-02T09:57:18.520Z,11992
2015-09-02T09:57:30.944Z,11816
2015-09-02T09:57:43.366Z,11640
2015-09-02T09:57:55.772Z,11520
2015-09-02T09:58:08.178Z,11476
2015-09-02T09:58:19.897Z,11416
2015-09-02T09:58:32.306Z,11360
2015-09-02T09:58:44.744Z,11296
2015-09-02T09:58:57.166Z,11188
2015-09-02T09:59:09.556Z,11056
2015-09-02T09:59:21.275Z,10944
2015-09-02T09:59:33.714Z,10880
2015-09-02T09:59:45.979Z,10764
2015-09-02T09:59:58.401Z,10624
2015-09-02T10:00:10.807Z,10480
2015-09-02T10:00:22.495Z,10300
2015-09-02T10:00:34.904Z,10128
2015-09-02T10:00:47.310Z,9968
2015-09-02T10:00:59.732Z,9820
2015-09-02T10:01:12.138Z,9616
2015-09-02T10:01:24.576Z,9456
2015-09-02T10:01:36.999Z,9216
2015-09-02T10:01:49.389Z,8972
2015-09-02T10:02:01.780Z,8776
2015-09-02T10:02:13.468Z,8640
2015-09-02T10:02:25.874Z,8512
2015-09-02T10:02:38.283Z,8420
2015-09-02T10:02:50.689Z,8464
2015-09-02T10:03:03.111Z,8476
2015-09-02T10:03:15.533Z,8464
2015-09-02T10:03:27.955Z,8444
2015-09-02T10:03:40.362Z,8408
2015-09-02T10:03:52.753Z,8288
2015-09-02T10:04:05.175Z,8256
2015-09-02T10:04:17.581Z,8156
2015-09-02T10:04:30.034Z,8132
2015-09-02T10:04:42.458Z,8060
2015-09-02T10:04:54.880Z,8036
2015-09-02T10:05:07.302Z,8044
2015-09-02T10:05:19.708Z,8020
2015-09-02T10:05:32.114Z,8024
2015-09-02T10:05:44.507Z,7984
2015-09-02T10:05:56.897Z,8012
2015-09-02T10:06:09.304Z,8008
2015-09-02T10:06:21.710Z,8016
2015-09-02T10:06:34.147Z,8024
2015-09-02T10:06:46.556Z,7996
2015-09-02T10:06:58.946Z,7980
2015-09-02T10:07:11.353Z,7944
2015-09-02T10:07:23.759Z,7924
2015-09-02T10:07:36.165Z,7884
2015-09-02T10:07:48.558Z,7772
2015-09-02T10:08:00.995Z,7664
2015-09-02T10:08:13.417Z,7524
2015-09-02T10:08:25.823Z,7360
2015-09-02T10:08:38.214Z,7204
2015-09-02T10:08:50.622Z,7072
2015-09-02T10:09:03.044Z,6928
2015-09-02T10:09:15.435Z,6776
2015-09-02T10:09:27.825Z,6644
2015-09-02T10:09:40.232Z,6556
2015-09-02T10:09:52.671Z,6476
2015-09-02T10:10:05.077Z,6416
2015-09-02T10:10:17.484Z,6380
2015-09-02T10:10:29.187Z,6356
2015-09-02T10:10:41.577Z,6392
2015-09-02T10:10:54.001Z,6364
2015-09-02T10:11:06.439Z,6424
2015-09-02T10:11:18.861Z,6544
2015-09-02T10:11:31.282Z,6584
2015-09-02T10:11:43.689Z,6640
2015-09-02T10:11:56.081Z,6704
2015-09-02T10:12:08.488Z,6752
2015-09-02T10:12:20.769Z,6832
2015-09-02T10:12:33.159Z,6900
2015-09-02T10:12:45.613Z,6968
2015-09-02T10:12:58.021Z,6980
2015-09-02T10:13:10.443Z,6988
2015-09-02T10:13:22.833Z,6968
2015-09-02T10:13:34.536Z,6980
2015-09-02T10:13:46.943Z,6948
2015-09-02T10:13:59.351Z,6884
2015-09-02T10:14:11.757Z,6828
2015-09-02T10:14:23.445Z,6776
2015-09-02T10:14:35.882Z,6744
2015-09-02T10:14:48.273Z,6704
2015-09-02T10:15:00.681Z,6696
2015-09-02T10:15:13.072Z,6652
2015-09-02T10:15:25.494Z,6592
2015-09-02T10:15:37.931Z,6496
2015-09-02T10:15:50.337Z,6412
2015-09-02T10:16:02.761Z,6340
2015-09-02T10:16:15.183Z,6268
2015-09-02T10:16:27.574Z,6220
2015-09-02T10:16:39.980Z,6136
2015-09-02T10:16:51.667Z,6072
2015-09-02T10:17:04.091Z,6056
2015-09-02T10:17:16.498Z,5960
2015-09-02T10:17:28.919Z,5972
2015-09-02T10:17:41.326Z,5924
2015-09-02T10:17:53.748Z,5908
2015-09-02T10:18:06.156Z,5908
2015-09-02T10:18:18.546Z,5920
2015-09-02T10:18:30.953Z,5924
2015-09-02T10:18:43.343Z,5972
2015-09-02T10:18:55.781Z,5988
2015-09-02T10:19:08.189Z,6016
2015-09-02T10:19:20.611Z,6036
2015-09-02T10:19:32.314Z,6108
2015-09-02T10:19:44.736Z,6120
2015-09-02T10:19:57.142Z,6156
2015-09-02T10:20:09.535Z,6212
2015-09-02T10:20:21.941Z,6228
2015-09-02T10:20:34.332Z,6272
2015-09-02T10:20:46.738Z,6344
2015-09-02T10:20:59.160Z,6396
2015-09-02T10:21:11.584Z,6424
2015-09-02T10:21:23.974Z,6452
2015-09-02T10:21:36.381Z,6440
2015-09-02T10:21:48.787Z,6452
2015-09-02T10:22:01.177Z,6540
2015-09-02T10:22:13.570Z,6540
2015-09-02T10:22:25.992Z,6584
2015-09-02T10:22:38.414Z,6700
2015-09-02T10:22:50.836Z,6776
2015-09-02T10:23:03.242Z,6704
2015-09-02T10:23:15.634Z,6928
2015-09-02T10:23:28.040Z,6964
2015-09-02T10:23:40.446Z,7000
2015-09-02T10:23:52.852Z,7016
2015-09-02T10:24:05.259Z,7052
2015-09-02T10:24:17.668Z,7064
2015-09-02T10:24:30.090Z,7108
2015-09-02T10:24:42.480Z,7168
2015-09-02T10:24:54.871Z,7196
2015-09-02T10:25:07.293Z,7208
2015-09-02T10:25:19.701Z,7260
2015-09-02T10:25:32.092Z,7260
2015-09-02T10:25:44.498Z,7324
2015-09-02T10:25:56.904Z,7380
2015-09-02T10:26:09.326Z,7436
2015-09-02T10:26:21.733Z,7548
2015-09-02T10:26:34.140Z,7628
2015-09-02T10:26:46.546Z,7648
2015-09-02T10:26:58.936Z,7736
2015-09-02T10:27:11.343Z,7764
2015-09-02T10:27:23.752Z,7904
2015-09-02T10:27:36.174Z,7916
2015-09-02T10:27:48.596Z,7984
2015-09-02T10:28:00.283Z,7984
2015-09-02T10:28:12.674Z,8076
2015-09-02T10:28:25.082Z,8088
2015-09-02T10:28:37.473Z,8168
2015-09-02T10:28:49.863Z,8204
2015-09-02T10:29:02.285Z,8200
2015-09-02T10:29:14.707Z,8124
2015-09-02T10:29:27.131Z,8020
2015-09-02T10:29:39.537Z,7956
2015-09-02T10:29:51.928Z,7820
2015-09-02T10:30:03.475Z,7700
2015-09-02T10:30:15.865Z,7632
2015-09-02T10:30:28.273Z,7488
2015-09-02T10:30:40.679Z,7376
2015-09-02T10:30:52.382Z,7312
2015-09-02T10:31:04.804Z,7228
2015-09-02T10:31:16.491Z,7140
2015-09-02T10:31:28.931Z,7084
2015-09-02T10:31:41.337Z,7032
2015-09-02T10:31:53.743Z,6996
2015-09-02T10:32:05.431Z,6948
2015-09-02T10:32:17.837Z,6964
2015-09-02T10:32:29.553Z,6972
2015-09-02T10:32:41.975Z,6964
2015-09-02T10:32:54.381Z,6996
2015-09-02T10:33:06.772Z,7004
2015-09-02T10:33:19.178Z,7000
2015-09-02T10:33:31.596Z,6936
2015-09-02T10:33:43.987Z,6968
2015-09-02T10:33:56.409Z,6992
2015-09-02T10:34:08.815Z,6964
2015-09-02T10:34:21.237Z,6960
2015-09-02T10:34:33.656Z,6904
2015-09-02T10:34:45.891Z,6928
2015-09-02T10:34:58.297Z,6888
2015-09-02T10:35:10.688Z,6848
2015-09-02T10:35:23.094Z,6796
2015-09-02T10:35:35.514Z,6768
2015-09-02T10:35:47.936Z,6712
2015-09-02T10:36:00.342Z,6660
2015-09-02T10:36:12.748Z,6624
2015-09-02T10:36:25.155Z,6684
2015-09-02T10:36:37.558Z,6584
2015-09-02T10:36:49.965Z,6492
2015-09-02T10:37:02.386Z,6524
2015-09-02T10:37:14.793Z,6332
2015-09-02T10:37:27.199Z,6464
2015-09-02T10:37:39.627Z,6360
2015-09-02T10:37:52.017Z,6312
2015-09-02T10:38:04.424Z,6260
2015-09-02T10:38:16.830Z,6236
2015-09-02T10:38:29.236Z,6148
2015-09-02T10:38:41.648Z,6132
2015-09-02T10:38:54.055Z,6096
2015-09-02T10:39:06.492Z,6084
2015-09-02T10:39:18.898Z,6032
2015-09-02T10:39:31.289Z,6060
2015-09-02T10:39:43.702Z,6040
2015-09-02T10:39:56.093Z,6044
2015-09-02T10:40:08.499Z,5968
2015-09-02T10:40:20.905Z,5948
2015-09-02T10:40:33.312Z,5860
2015-09-02T10:40:45.740Z,5948
2015-09-02T10:40:58.130Z,5964
2015-09-02T10:41:10.536Z,5996
2015-09-02T10:41:22.927Z,5928
2015-09-02T10:41:34.615Z,5892
2015-09-02T10:41:47.041Z,5864
2015-09-02T10:41:59.448Z,5820
2015-09-02T10:42:11.854Z,5732
2015-09-02T10:42:24.276Z,5692
2015-09-02T10:42:36.666Z,5628
2015-09-02T10:42:49.076Z,5556
2015-09-02T10:43:01.482Z,5560
2015-09-02T10:43:13.888Z,5580
2015-09-02T10:43:26.279Z,5552
2015-09-02T10:43:38.685Z,5564
2015-09-02T10:43:50.391Z,5524
2015-09-02T10:44:02.813Z,5512
2015-09-02T10:44:15.204Z,5532
2015-09-02T10:44:26.891Z,5552
2015-09-02T10:44:39.297Z,5596
2015-09-02T10:44:51.708Z,5612
2015-09-02T10:45:04.098Z,5620
2015-09-02T10:45:16.520Z,5624
2015-09-02T10:45:28.926Z,5616
2015-09-02T10:45:41.364Z,5648
2015-09-02T10:45:53.758Z,5676
2015-09-02T10:46:06.148Z,5672
2015-09-02T10:46:18.554Z,5696
2015-09-02T10:46:30.961Z,5736
2015-09-02T10:46:43.367Z,5712
2015-09-02T10:46:55.776Z,5788
2015-09-02T10:47:08.198Z,5748
2015-09-02T10:47:20.620Z,5732
2015-09-02T10:47:33.011Z,5716
2015-09-02T10:47:45.417Z,5732
2015-09-02T10:47:57.826Z,5712
2015-09-02T10:48:10.232Z,5660
2015-09-02T10:48:22.623Z,5712
2015-09-02T10:48:35.029Z,5764
2015-09-02T10:48:47.467Z,5888
2015-09-02T10:48:59.876Z,5820
2015-09-02T10:49:12.282Z,5816
2015-09-02T10:49:24.688Z,5772
2015-09-02T10:49:37.079Z,5736
2015-09-02T10:49:49.517Z,5724
2015-09-02T10:50:01.973Z,5724
2015-09-02T10:50:14.223Z,5708
2015-09-02T10:50:26.645Z,5720
2015-09-02T10:50:39.066Z,5740
2015-09-02T10:50:51.441Z,5764
2015-09-02T10:51:03.818Z,5880
2015-09-02T10:51:16.225Z,5844
2015-09-02T10:51:28.600Z,5904
2015-09-02T10:51:41.006Z,5956
2015-09-02T10:51:53.397Z,6056
2015-09-02T10:52:05.820Z,6112
2015-09-02T10:52:18.258Z,6180
2015-09-02T10:52:30.649Z,6280
2015-09-02T10:52:43.055Z,5980
2015-09-02T10:52:55.445Z,6452
2015-09-02T10:53:07.854Z,6536
2015-09-02T10:53:20.260Z,6608
2015-09-02T10:53:32.666Z,6664
2015-09-02T10:53:45.088Z,6716
2015-09-02T10:53:57.526Z,6776
2015-09-02T10:54:09.934Z,6808
2015-09-02T10:54:22.324Z,6828
2015-09-02T10:54:34.731Z,6964
2015-09-02T10:54:47.121Z,6996
2015-09-02T10:54:59.512Z,7004
2015-09-02T10:55:11.936Z,7312
2015-09-02T10:55:24.342Z,6984
2015-09-02T10:55:36.764Z,6956
2015-09-02T10:55:49.155Z,6976
2015-09-02T10:56:01.561Z,6944
2015-09-02T10:56:13.970Z,6928
2015-09-02T10:56:26.361Z,6948
2015-09-02T10:56:38.767Z,6920
2015-09-02T10:56:51.173Z,6900
2015-09-02T10:57:03.595Z,6956
2015-09-02T10:57:16.019Z,6976
2015-09-02T10:57:28.410Z,7068
2015-09-02T10:57:40.847Z,6928
2015-09-02T10:57:53.253Z,6792
2015-09-02T10:58:05.660Z,6792
2015-09-02T10:58:18.052Z,6744
2015-09-02T10:58:30.474Z,6656
2015-09-02T10:58:42.880Z,6608
2015-09-02T10:58:55.318Z,6528
2015-09-02T10:59:07.708Z,6424
2015-09-02T10:59:20.116Z,6332
2015-09-02T10:59:32.522Z,6244
2015-09-02T10:59:44.928Z,6088
2015-09-02T10:59:57.319Z,6032
2015-09-02T11:00:09.725Z,5992
2015-09-02T11:00:22.150Z,5968
2015-09-02T11:00:34.572Z,5936
2015-09-02T11:00:46.962Z,5880
2015-09-02T11:00:59.384Z,5840
2015-09-02T11:01:11.791Z,5844
2015-09-02T11:01:24.183Z,5980
2015-09-02T11:01:36.589Z,5952
2015-09-02T11:01:48.996Z,5824
2015-09-02T11:02:01.418Z,5824
2015-09-02T11:02:13.839Z,5996
2015-09-02T11:02:25.544Z,5996
2015-09-02T11:02:37.965Z,5964
2015-09-02T11:02:50.356Z,5948
2015-09-02T11:03:02.747Z,6172
2015-09-02T11:03:15.153Z,6160
2015-09-02T11:03:27.578Z,6168
2015-09-02T11:03:40.000Z,6252
2015-09-02T11:03:52.250Z,6312
2015-09-02T11:04:04.640Z,6348
2015-09-02T11:04:17.047Z,6376
2015-09-02T11:04:29.454Z,6380
2015-09-02T11:04:41.876Z,6560
2015-09-02T11:04:54.282Z,6696
2015-09-02T11:05:06.688Z,6816
2015-09-02T11:05:19.110Z,6864
2015-09-02T11:05:31.519Z,7008
2015-09-02T11:05:43.926Z,7044
2015-09-02T11:05:56.332Z,7160
2015-09-02T11:06:08.722Z,7284
2015-09-02T11:06:21.129Z,7356
2015-09-02T11:06:33.537Z,7468
2015-09-02T11:06:45.943Z,7500
2015-09-02T11:06:58.365Z,7728
2015-09-02T11:07:10.756Z,7764
2015-09-02T11:07:23.162Z,7768
2015-09-02T11:07:35.554Z,7996
2015-09-02T11:07:47.960Z,8080
2015-09-02T11:08:00.350Z,8092
2015-09-02T11:08:12.757Z,8184
2015-09-02T11:08:25.163Z,8368
2015-09-02T11:08:37.588Z,8524
2015-09-02T11:08:49.978Z,8532
2015-09-02T11:09:02.385Z,8680
2015-09-02T11:09:14.775Z,8776
2015-09-02T11:09:27.197Z,9060
2015-09-02T11:09:39.589Z,9072
2015-09-02T11:09:51.995Z,9152
2015-09-02T11:10:04.386Z,9272
2015-09-02T11:10:16.776Z,9436
2015-09-02T11:10:29.167Z,9632
2015-09-02T11:10:41.544Z,9820
2015-09-02T11:10:53.950Z,10008
2015-09-02T11:11:06.356Z,10196
2015-09-02T11:11:18.747Z,10540
2015-09-02T11:11:31.138Z,10772
2015-09-02T11:11:43.562Z,11120
2015-09-02T11:11:55.983Z,11124
2015-09-02T11:12:08.374Z,11232
2015-09-02T11:12:20.780Z,11352
2015-09-02T11:12:33.187Z,11612
2015-09-02T11:12:45.579Z,11676
2015-09-02T11:12:57.985Z,12036
2015-09-02T11:13:10.392Z,12080
2015-09-02T11:13:22.798Z,12552
2015-09-02T11:13:35.220Z,12640
2015-09-02T11:13:47.613Z,13024
2015-09-02T11:14:00.020Z,13284
2015-09-02T11:14:12.410Z,13548
2015-09-02T11:14:24.817Z,13832
2015-09-02T11:14:37.207Z,14172
2015-09-02T11:14:49.615Z,14324
2015-09-02T11:15:02.037Z,14284
2015-09-02T11:15:14.459Z,14352
2015-09-02T11:15:26.850Z,14184
2015-09-02T11:15:39.272Z,14044
2015-09-02T11:15:51.664Z,13940
2015-09-02T11:16:04.071Z,14040
2015-09-02T11:16:16.477Z,13940
2015-09-02T11:16:28.883Z,13980
2015-09-02T11:16:41.305Z,13792
2015-09-02T11:16:53.712Z,13808
2015-09-02T11:17:06.118Z,13896
2015-09-02T11:17:18.525Z,13820
2015-09-02T11:17:30.915Z,13860
2015-09-02T11:17:43.322Z,14132
2015-09-02T11:17:55.730Z,14088
2015-09-02T11:18:08.136Z,14328
2015-09-02T11:18:20.558Z,14304
2015-09-02T11:18:32.964Z,14320
2015-09-02T11:18:45.370Z,14408
2015-09-02T11:18:57.779Z,14408
2015-09-02T11:19:10.169Z,14468
2015-09-02T11:19:22.576Z,14440
2015-09-02T11:19:34.982Z,14436
2015-09-02T11:19:47.388Z,14208
2015-09-02T11:19:59.812Z,13896
2015-09-02T11:20:12.234Z,13688
2015-09-02T11:20:24.640Z,13412
2015-09-02T11:20:37.046Z,13228
2015-09-02T11:20:49.437Z,13172
2015-09-02T11:21:01.830Z,13200
2015-09-02T11:21:14.236Z,13008
2015-09-02T11:21:26.642Z,12928
2015-09-02T11:21:39.064Z,12880
2015-09-02T11:21:51.470Z,12708
2015-09-02T11:22:03.878Z,12708
2015-09-02T11:22:16.285Z,12408
2015-09-02T11:22:28.675Z,12244
2015-09-02T11:22:41.082Z,11956
2015-09-02T11:22:53.488Z,11804
2015-09-02T11:23:05.897Z,11616
2015-09-02T11:23:18.319Z,11328
2015-09-02T11:23:30.569Z,11364
2015-09-02T11:23:42.975Z,11136
2015-09-02T11:23:55.366Z,10916
2015-09-02T11:24:07.758Z,10808
2015-09-02T11:24:20.165Z,10632
2015-09-02T11:24:32.571Z,10608
2015-09-02T11:24:44.977Z,10476
2015-09-02T11:24:57.399Z,9928
2015-09-02T11:25:09.822Z,9756
2015-09-02T11:25:22.213Z,9752
2015-09-02T11:25:34.619Z,9632
2015-09-02T11:25:46.306Z,9412
2015-09-02T11:25:58.697Z,9332
2015-09-02T11:26:11.105Z,9320
2015-09-02T11:26:23.511Z,9292
2015-09-02T11:26:35.933Z,9260
2015-09-02T11:26:48.355Z,9168
2015-09-02T11:27:00.746Z,9124
2015-09-02T11:27:13.154Z,9220
2015-09-02T11:27:25.545Z,9432
2015-09-02T11:27:37.951Z,9612
2015-09-02T11:27:50.357Z,9608
2015-09-02T11:28:02.779Z,9692
2015-09-02T11:28:14.484Z,9696
2015-09-02T11:28:26.906Z,9764
2015-09-02T11:28:39.328Z,9728
2015-09-02T11:28:54.734Z,9532
2015-09-02T11:29:07.125Z,9740
2015-09-02T11:29:19.516Z,9752
2015-09-02T11:29:31.923Z,9648
2015-09-02T11:29:44.329Z,9508
2015-09-02T11:29:56.735Z,9488
2015-09-02T11:30:09.157Z,9456
2015-09-02T11:30:21.566Z,9572
2015-09-02T11:30:33.957Z,9564
2015-09-02T11:30:46.363Z,9664
2015-09-02T11:30:58.785Z,9616
2015-09-02T11:31:10.457Z,9728
2015-09-02T11:31:22.865Z,10096
2015-09-02T11:31:35.287Z,10180
2015-09-02T11:31:47.756Z,10228
2015-09-02T11:32:00.146Z,10220
2015-09-02T11:32:12.537Z,10220
2015-09-02T11:32:24.930Z,10024
2015-09-02T11:32:37.305Z,9828
2015-09-02T11:32:49.695Z,9692
2015-09-02T11:33:02.070Z,9364
2015-09-02T11:33:14.492Z,9488
2015-09-02T11:33:26.900Z,9644
2015-09-02T11:33:39.307Z,9800
2015-09-02T11:33:51.697Z,10060
2015-09-02T11:34:04.104Z,10356
2015-09-02T11:34:16.510Z,10700
2015-09-02T11:34:28.901Z,10924
2015-09-02T11:34:41.308Z,11268
2015-09-02T11:34:53.730Z,11424
2015-09-02T11:35:06.151Z,11692
2015-09-02T11:35:18.558Z,12024
2015-09-02T11:35:30.967Z,12400
2015-09-02T11:35:43.358Z,12688
2015-09-02T11:35:55.764Z,12912
2015-09-02T11:36:08.170Z,13056
2015-09-02T11:36:20.561Z,13088
2015-09-02T11:36:32.985Z,13348
2015-09-02T11:36:45.391Z,13492
2015-09-02T11:36:57.797Z,13480
2015-09-02T11:37:10.188Z,13660
2015-09-02T11:37:22.578Z,13696
2015-09-02T11:37:35.001Z,13880
2015-09-02T11:37:47.407Z,14168
2015-09-02T11:37:59.829Z,14584
2015-09-02T11:38:12.236Z,14776
2015-09-02T11:38:24.657Z,15168
2015-09-02T11:38:37.067Z,15348
2015-09-02T11:38:49.473Z,15672
2015-09-02T11:39:01.942Z,15780
2015-09-02T11:39:14.348Z,15732
2015-09-02T11:39:26.739Z,15480
2015-09-02T11:39:39.147Z,15180
2015-09-02T11:39:51.553Z,14804
2015-09-02T11:40:03.975Z,14388
2015-09-02T11:40:16.381Z,14152
2015-09-02T11:40:28.787Z,13972
2015-09-02T11:40:41.180Z,13680
2015-09-02T11:40:53.571Z,13656
2015-09-02T11:41:05.961Z,13492
2015-09-02T11:41:18.368Z,13428
2015-09-02T11:41:30.789Z,13228
2015-09-02T11:41:43.213Z,13644
2015-09-02T11:41:55.620Z,13664
2015-09-02T11:42:08.026Z,13684
2015-09-02T11:42:20.416Z,13968
2015-09-02T11:42:32.838Z,13928
2015-09-02T11:42:45.247Z,13656
2015-09-02T11:42:57.653Z,13508
2015-09-02T11:43:09.356Z,13112
2015-09-02T11:43:21.778Z,12876
2015-09-02T11:43:34.168Z,12972
2015-09-02T11:43:46.576Z,12788
2015-09-02T11:43:58.966Z,13104
2015-09-02T11:44:11.373Z,12792
2015-09-02T11:44:23.779Z,13012
2015-09-02T11:44:36.185Z,13312
2015-09-02T11:44:48.609Z,13512
2015-09-02T11:45:01.031Z,13984
2015-09-02T11:45:13.421Z,14504
2015-09-02T11:45:25.828Z,14888
2015-09-02T11:45:38.218Z,14996
2015-09-02T11:45:50.627Z,15096
2015-09-02T11:46:03.017Z,15116
2015-09-02T11:46:15.439Z,15076
2015-09-02T11:46:27.861Z,15008
2015-09-02T11:46:40.283Z,14836
2015-09-02T11:46:52.692Z,14988
2015-09-02T11:47:04.380Z,14964
2015-09-02T11:47:16.770Z,15216
2015-09-02T11:47:29.176Z,15876
2015-09-02T11:47:41.583Z,16168
2015-09-02T11:47:53.991Z,16540
2015-09-02T11:48:06.397Z,17080
2015-09-02T11:48:18.819Z,17352
2015-09-02T11:48:31.225Z,17792
2015-09-02T11:48:43.632Z,17312
2015-09-02T11:48:56.040Z,17292
2015-09-02T11:49:08.430Z,16784
2015-09-02T11:49:20.852Z,16224
2015-09-02T11:49:33.259Z,15900
2015-09-02T11:49:45.665Z,16072
2015-09-02T11:49:57.807Z,16460
2015-09-02T11:50:10.229Z,16848
2015-09-02T11:50:22.651Z,16724
2015-09-02T11:50:35.073Z,16608
2015-09-02T11:50:47.542Z,16344
2015-09-02T11:50:59.950Z,16108
2015-09-02T11:51:12.216Z,15556
2015-09-02T11:51:24.638Z,14940
2015-09-02T11:51:36.997Z,14504
2015-09-02T11:51:49.403Z,14064
2015-09-02T11:52:01.795Z,13712
2015-09-02T11:52:14.217Z,13660
2015-09-02T11:52:26.623Z,13584
2015-09-02T11:52:39.029Z,13732
2015-09-02T11:52:51.420Z,14044
2015-09-02T11:53:03.829Z,14480
2015-09-02T11:53:16.251Z,15124
2015-09-02T11:53:28.642Z,15752
2015-09-02T11:53:41.048Z,16416
2015-09-02T11:53:53.438Z,17200
2015-09-02T11:54:05.846Z,17984
2015-09-02T11:54:18.252Z,18528
2015-09-02T11:54:30.674Z,18976
2015-09-02T11:54:43.096Z,19008
2015-09-02T11:54:55.502Z,18912
2015-09-02T11:55:07.910Z,18752